Time;durP1;ratioP1;P1;durP2;ratioP2;P2;SDS_P1;SDS_P2;PMS_P1;PMS_P2;Temp;Humidity;BMP_temperature;BMP_pressure;BME280_temperature;BME280_humidity;BME280_pressure;Samples;Min_cycle;Max_cycle;Signal;HPM_P1;HPM_P2
2022/06/04 00:00:48;;;;;;;4.00;1.63;;;;;;;17.39;50.17;101728.81;5180240;28;20666;-77
2022/06/04 00:03:21;;;;;;;4.30;1.70;;;;;;;17.54;49.92;101727.66;5186216;28;20449;-77
2022/06/04 00:05:54;;;;;;;7.13;1.97;;;;;;;17.27;50.43;101723.50;5189016;28;20118;-74
2022/06/04 00:08:26;;;;;;;3.75;1.70;;;;;;;17.19;50.65;101717.06;5200852;28;20027;-77
2022/06/04 00:16:38;;;;;;;3.37;1.37;;;;;;;17.45;49.46;101706.34;5191755;28;20038;-76
2022/06/04 00:19:09;;;;;;;4.60;1.70;;;;;;;17.11;50.60;101713.19;5190746;28;20030;-76
2022/06/04 00:21:40;;;;;;;8.03;2.00;;;;;;;17.24;50.33;101721.06;5190908;28;20033;-77
2022/06/04 00:24:12;;;;;;;4.63;1.67;;;;;;;17.02;50.87;101716.47;5191259;28;20065;-77
2022/06/04 00:26:43;;;;;;;3.23;1.60;;;;;;;16.99;51.56;101719.34;5190362;28;20034;-77
2022/06/04 00:29:14;;;;;;;8.07;1.70;;;;;;;17.02;50.14;101708.53;5190185;28;20502;-77
2022/06/04 00:31:45;;;;;;;2.93;1.50;;;;;;;17.01;50.72;101728.03;5191850;28;20057;-77
2022/06/04 00:34:17;;;;;;;4.17;2.03;;;;;;;17.09;50.94;101725.66;5190736;28;20076;-77
2022/06/04 00:36:48;;;;;;;2.20;1.50;;;;;;;16.84;50.79;101726.63;5190561;28;20180;-76
2022/06/04 00:39:20;;;;;;;5.23;1.83;;;;;;;17.07;50.89;101732.03;5191407;28;20076;-78
2022/06/04 00:42:01;;;;;;;2.67;1.77;;;;;;;17.09;50.97;101725.66;5189971;28;20023;-77
2022/06/04 00:44:32;;;;;;;3.80;1.53;;;;;;;17.00;50.39;101715.78;5191018;28;20507;-77
2022/06/04 00:47:21;;;;;;;6.23;1.80;;;;;;;17.02;49.45;101700.59;5190162;28;20164;-76
2022/06/04 00:49:53;;;;;;;3.70;1.70;;;;;;;16.64;51.11;101716.53;5189434;28;20085;-77
2022/06/04 00:52:25;;;;;;;3.97;1.90;;;;;;;16.87;49.67;101702.59;5191302;28;20026;-76
2022/06/04 00:54:57;;;;;;;4.20;1.50;;;;;;;16.74;49.69;101734.38;5190734;28;20031;-76
2022/06/04 00:57:38;;;;;;;4.53;1.40;;;;;;;16.82;49.70;101729.38;5189478;28;20022;-77
2022/06/04 01:00:17;;;;;;;3.73;1.53;;;;;;;16.73;49.95;101740.63;5188281;28;20654;-76
2022/06/04 01:03:11;;;;;;;6.93;1.73;;;;;;;16.75;49.89;101746.66;5190473;28;20037;-76
2022/06/04 01:06:09;;;;;;;6.20;1.65;;;;;;;16.75;50.18;101749.28;5189467;28;20054;-77
2022/06/04 01:09:11;;;;;;;4.00;1.50;;;;;;;16.66;50.02;101766.66;5189120;28;20053;-76
2022/06/04 01:15:00;;;;;;;4.77;1.77;;;;;;;16.75;49.82;101773.09;5213851;28;20038;-76
2022/06/04 01:17:51;;;;;;;3.10;1.47;;;;;;;16.56;49.79;101755.91;5209504;28;20045;-76
2022/06/04 01:20:43;;;;;;;4.03;1.60;;;;;;;16.64;49.82;101763.28;5207999;28;20030;-76
2022/06/04 01:23:52;;;;;;;3.93;1.40;;;;;;;16.51;49.87;101763.31;5210629;28;20533;-77
2022/06/04 01:26:48;;;;;;;3.20;1.60;;;;;;;16.40;50.29;101761.44;5208456;28;20042;-76
2022/06/04 01:29:55;;;;;;;3.37;1.70;;;;;;;16.34;50.18;101767.97;5209826;28;20653;-76
2022/06/04 01:32:31;;;;;;;5.13;1.70;;;;;;;16.20;50.54;101776.88;5210650;28;20313;-77
2022/06/04 01:35:16;;;;;;;4.07;1.60;;;;;;;16.25;51.11;101779.22;5209884;28;20025;-78
2022/06/04 01:38:02;;;;;;;4.03;1.90;;;;;;;16.05;51.06;101757.66;5209123;28;20026;-78
2022/06/04 01:43:45;;;;;;;3.90;1.87;;;;;;;16.04;51.14;101767.34;5200041;28;20042;-77
2022/06/04 01:46:25;;;;;;;3.27;1.57;;;;;;;16.08;51.31;101781.19;5210312;28;20030;-77
2022/06/04 01:49:02;;;;;;;5.63;1.67;;;;;;;15.90;51.44;101786.75;5209101;28;20492;-75
2022/06/04 01:51:35;;;;;;;5.23;1.50;;;;;;;15.88;51.86;101798.38;5210508;28;20036;-78
2022/06/04 01:54:31;;;;;;;6.07;2.17;;;;;;;16.02;51.06;101789.56;5208364;28;20025;-77
2022/06/04 01:57:15;;;;;;;6.53;2.00;;;;;;;15.90;51.43;101802.59;5208272;28;20493;-76
2022/06/04 01:59:52;;;;;;;3.40;2.00;;;;;;;15.93;51.09;101805.06;5209155;28;20042;-77
2022/06/04 02:02:37;;;;;;;5.87;2.27;;;;;;;16.09;50.95;101807.53;5207559;28;20030;-77
2022/06/04 02:05:23;;;;;;;4.28;1.65;;;;;;;15.97;51.11;101803.88;5209654;28;20735;-77
2022/06/04 02:07:57;;;;;;;4.10;1.63;;;;;;;15.78;52.22;101787.59;5209839;28;20029;-76
2022/06/04 02:10:34;;;;;;;8.02;2.47;;;;;;;16.00;51.55;101804.66;5208716;28;20650;-76
2022/06/04 02:13:09;;;;;;;4.83;2.07;;;;;;;15.78;52.14;101796.34;5208336;28;20080;-76
2022/06/04 02:16:00;;;;;;;4.63;2.03;;;;;;;16.04;51.24;101808.81;5209688;28;20061;-77
2022/06/04 02:18:31;;;;;;;6.07;2.20;;;;;;;15.73;52.03;101801.97;5208658;28;20104;-76
2022/06/04 02:21:03;;;;;;;2.90;1.70;;;;;;;15.77;52.03;101797.31;5206761;28;20141;-77
2022/06/04 02:23:35;;;;;;;2.97;1.60;;;;;;;15.68;52.57;101809.34;5209841;28;20040;-77
2022/06/04 02:26:07;;;;;;;4.67;2.10;;;;;;;15.44;52.67;101807.38;5208182;28;20029;-77
2022/06/04 02:28:38;;;;;;;5.67;1.77;;;;;;;15.51;52.89;101801.69;5208417;28;20022;-76
2022/06/04 02:31:15;;;;;;;3.53;1.70;;;;;;;15.66;52.45;101811.22;5209122;28;20026;-77
2022/06/04 02:34:32;;;;;;;3.90;2.20;;;;;;;15.80;52.00;101801.53;5208650;28;20030;-77
2022/06/04 02:37:22;;;;;;;4.47;2.37;;;;;;;15.56;52.80;101795.16;5192041;28;20084;-77
2022/06/04 02:39:58;;;;;;;3.10;1.93;;;;;;;15.51;53.25;101796.41;5208351;28;20510;-77
2022/06/04 02:42:34;;;;;;;7.37;2.13;;;;;;;15.38;53.47;101788.47;5208949;28;20104;-78
2022/06/04 02:45:19;;;;;;;5.60;2.53;;;;;;;15.31;53.87;101785.34;5208302;28;20026;-78
2022/06/04 02:48:01;;;;;;;6.83;2.13;;;;;;;15.34;53.55;101764.88;5209344;28;20038;-78
2022/06/04 02:50:41;;;;;;;5.70;2.67;;;;;;;15.39;53.94;101761.97;5208771;28;20092;-78
2022/06/04 02:53:15;;;;;;;3.37;2.07;;;;;;;15.24;54.50;101754.09;5208970;28;20038;-77
2022/06/04 02:55:55;;;;;;;4.00;2.28;;;;;;;15.31;54.27;101743.97;5208746;28;20026;-76
2022/06/04 02:58:27;;;;;;;7.07;2.23;;;;;;;15.23;54.48;101747.13;5209247;28;20037;-77
2022/06/04 03:01:02;;;;;;;5.90;2.20;;;;;;;15.22;54.93;101740.16;5207421;28;20101;-76
2022/06/04 03:03:33;;;;;;;4.30;2.47;;;;;;;15.02;55.91;101737.97;5209538;28;20418;-76
2022/06/04 03:06:07;;;;;;;9.63;2.80;;;;;;;15.12;55.20;101739.06;5208420;28;20034;-77
2022/06/04 03:08:38;;;;;;;5.32;2.75;;;;;;;15.00;55.38;101730.16;5209423;28;20029;-77
2022/06/04 03:11:10;;;;;;;6.67;2.47;;;;;;;15.11;55.08;101737.38;5201868;28;20042;-77
2022/06/04 03:13:41;;;;;;;3.90;2.17;;;;;;;14.90;55.66;101737.81;5210429;28;20515;-77
2022/06/04 03:16:14;;;;;;;3.30;2.13;;;;;;;14.92;56.01;101738.56;5213287;28;20029;-77
2022/06/04 03:18:45;;;;;;;4.40;2.33;;;;;;;14.79;56.24;101727.91;5212552;28;20116;-77
2022/06/04 03:21:17;;;;;;;6.83;2.47;;;;;;;14.85;56.06;101739.91;5213146;28;20096;-77
2022/06/04 03:23:48;;;;;;;7.00;2.50;;;;;;;15.06;55.83;101739.47;5211771;28;20034;-77
2022/06/04 03:26:19;;;;;;;4.17;2.47;;;;;;;14.85;56.67;101735.47;5211911;28;20530;-78
2022/06/04 03:28:51;;;;;;;6.63;2.50;;;;;;;14.82;56.91;101737.47;5212377;28;20293;-77
2022/06/04 03:31:24;;;;;;;4.70;2.67;;;;;;;14.88;56.89;101734.44;5212007;28;20552;-75
2022/06/04 03:33:56;;;;;;;4.38;2.65;;;;;;;14.86;57.98;101731.03;5211346;28;20026;-76
2022/06/04 03:36:27;;;;;;;4.33;2.53;;;;;;;14.82;57.51;101729.56;5211593;28;20026;-76
2022/06/04 03:39:00;;;;;;;5.90;2.50;;;;;;;14.75;58.46;101732.53;5211595;28;20038;-76
2022/06/04 03:41:31;;;;;;;5.83;3.27;;;;;;;14.75;57.55;101743.09;5210371;28;20026;-76
2022/06/04 03:44:03;;;;;;;6.87;2.60;;;;;;;14.65;58.17;101741.97;5212114;28;20037;-77
2022/06/04 03:46:35;;;;;;;10.53;3.53;;;;;;;14.59;58.28;101758.19;5212312;28;20567;-76
2022/06/04 03:49:06;;;;;;;7.57;3.70;;;;;;;14.93;57.55;101749.94;5211767;28;20025;-76
2022/06/04 03:51:39;;;;;;;6.93;2.53;;;;;;;14.77;58.30;101743.00;5211567;28;20033;-77
2022/06/04 03:54:11;;;;;;;7.67;3.23;;;;;;;14.81;58.22;101751.59;5210575;28;20026;-77
2022/06/04 03:57:37;;;;;;;8.93;3.50;;;;;;;14.64;58.71;101751.66;5200519;28;20065;-77
2022/06/04 03:59:34;;;;;;;6.87;3.20;;;;;;;14.86;57.97;101749.50;5205251;28;20038;-78
2022/06/04 04:02:07;;;;;;;7.40;3.37;;;;;;;14.63;58.97;101760.53;5207206;28;20041;-78
2022/06/04 04:04:38;;;;;;;7.70;3.70;;;;;;;14.67;59.12;101770.88;5211975;28;20038;-78
2022/06/04 04:07:10;;;;;;;11.07;4.13;;;;;;;14.59;58.84;101752.91;5195395;28;20113;-77
2022/06/04 04:09:41;;;;;;;7.83;3.30;;;;;;;14.76;58.44;101765.03;5203438;28;20041;-77
2022/06/04 04:12:13;;;;;;;4.20;3.13;;;;;;;14.56;59.53;101759.22;5191945;28;20105;-76
2022/06/04 04:14:44;;;;;;;6.10;3.47;;;;;;;14.64;59.04;101766.66;5209838;28;20037;-77
2022/06/04 04:17:15;;;;;;;7.20;3.80;;;;;;;14.63;59.65;101773.72;5210800;28;20423;-78
2022/06/04 04:19:47;;;;;;;10.40;3.20;;;;;;;14.53;59.80;101775.22;5211485;28;20038;-77
2022/06/04 04:22:19;;;;;;;7.17;3.57;;;;;;;14.45;60.15;101767.78;5211457;28;20040;-76
2022/06/04 04:24:51;;;;;;;7.00;3.43;;;;;;;14.47;59.93;101759.81;5211748;28;20176;-76
2022/06/04 04:27:22;;;;;;;8.13;4.20;;;;;;;14.50;60.31;101780.69;5210637;28;20793;-77
2022/06/04 04:29:54;;;;;;;8.23;4.20;;;;;;;14.62;60.13;101782.56;5211871;28;20030;-77
2022/06/04 04:32:26;;;;;;;8.13;3.73;;;;;;;14.52;60.52;101795.47;5205389;28;20014;-77
2022/06/04 04:34:59;;;;;;;8.07;3.90;;;;;;;14.41;61.15;101790.00;5207959;28;20108;-77
2022/06/04 04:37:30;;;;;;;5.77;3.33;;;;;;;14.50;61.10;101801.78;5212291;28;20025;-76
2022/06/04 04:40:01;;;;;;;8.67;4.13;;;;;;;14.58;60.46;101798.66;5191614;28;20030;-76
2022/06/04 04:42:33;;;;;;;7.67;3.97;;;;;;;14.51;60.81;101806.97;5200859;28;20109;-78
2022/06/04 04:45:07;;;;;;;8.07;4.00;;;;;;;14.42;61.11;101820.69;5203181;28;20022;-80
2022/06/04 04:47:41;;;;;;;8.70;4.47;;;;;;;14.49;61.25;101811.47;5209564;28;20033;-77
2022/06/04 04:50:15;;;;;;;7.05;3.78;;;;;;;14.53;61.77;101806.84;5210574;28;20554;-80
2022/06/04 04:52:47;;;;;;;8.83;4.17;;;;;;;14.44;62.08;101821.44;5210931;28;20025;-80
2022/06/04 04:55:19;;;;;;;7.30;4.13;;;;;;;14.45;62.35;101814.41;5211132;28;20029;-77
2022/06/04 04:57:51;;;;;;;6.33;3.93;;;;;;;14.47;62.42;101812.53;5209633;28;20073;-77
2022/06/04 05:00:23;;;;;;;10.53;4.40;;;;;;;14.61;61.92;101816.91;5205983;28;20447;-78
2022/06/04 05:02:57;;;;;;;8.23;4.70;;;;;;;14.61;61.57;101804.59;5210744;28;20022;-77
2022/06/04 05:05:28;;;;;;;6.22;4.03;;;;;;;14.73;61.54;101817.97;5202855;28;20476;-76
2022/06/04 05:07:59;;;;;;;8.17;3.70;;;;;;;14.55;62.51;101812.03;5208760;28;20116;-77
2022/06/04 05:10:31;;;;;;;9.50;3.53;;;;;;;14.63;62.04;101817.66;5189437;28;20026;-78
2022/06/04 05:13:02;;;;;;;9.33;5.50;;;;;;;14.50;62.83;101818.41;5210799;28;20025;-80
2022/06/04 05:15:34;;;;;;;7.53;4.40;;;;;;;14.70;62.20;101812.88;5209136;28;20042;-81
2022/06/04 05:18:05;;;;;;;6.83;3.90;;;;;;;14.63;62.22;101809.75;5202392;28;20036;-83
2022/06/04 05:20:37;;;;;;;12.07;4.30;;;;;;;14.58;62.53;101830.28;5201286;28;20026;-81
2022/06/04 05:23:09;;;;;;;13.60;4.83;;;;;;;14.72;61.99;101832.06;5204759;28;20029;-81
2022/06/04 05:25:40;;;;;;;7.90;4.13;;;;;;;14.60;62.83;101833.69;5209546;28;20119;-79
2022/06/04 05:28:12;;;;;;;6.83;4.33;;;;;;;14.60;63.19;101829.28;5210008;28;20140;-79
2022/06/04 05:30:43;;;;;;;8.40;4.33;;;;;;;14.61;63.44;101832.72;5209905;28;20045;-79
2022/06/04 05:33:14;;;;;;;10.27;5.10;;;;;;;14.28;63.82;101808.34;5192923;28;20061;-80
2022/06/04 05:35:46;;;;;;;7.47;4.40;;;;;;;14.47;64.15;101831.78;5209664;28;20038;-80
2022/06/04 05:38:17;;;;;;;8.37;4.87;;;;;;;14.42;63.82;101841.78;5209758;28;20484;-80
2022/06/04 05:40:48;;;;;;;10.70;4.63;;;;;;;14.59;63.79;101832.84;5209144;28;20092;-80
2022/06/04 05:43:19;;;;;;;8.13;4.43;;;;;;;14.60;64.35;101833.69;5205883;28;20041;-80
2022/06/04 05:45:58;;;;;;;8.73;4.90;;;;;;;14.76;63.44;101850.28;5209763;28;20140;-80
2022/06/04 05:48:30;;;;;;;10.47;5.00;;;;;;;14.59;64.91;101848.66;5210789;28;20487;-79
2022/06/04 05:51:02;;;;;;;8.67;4.87;;;;;;;14.46;65.53;101842.44;5209969;28;20269;-80
2022/06/04 05:53:33;;;;;;;7.57;4.23;;;;;;;14.63;64.99;101854.59;5209681;28;20030;-80
2022/06/04 05:56:13;;;;;;;7.87;5.07;;;;;;;14.88;63.60;101853.09;5206812;28;20068;-80
2022/06/04 05:58:46;;;;;;;9.53;5.37;;;;;;;14.81;64.19;101854.44;5189590;28;20037;-80
2022/06/04 06:01:21;;;;;;;10.32;5.10;;;;;;;14.84;63.88;101846.31;5203756;28;20030;-80
2022/06/04 06:03:52;;;;;;;;;;;;;;;14.93;62.24;101835.22;5210160;28;20048;-80
2022/06/04 06:06:27;;;;;;;10.63;5.17;;;;;;;14.85;63.95;101853.31;5210040;28;19913;-81
2022/06/04 06:09:02;;;;;;;11.33;5.80;;;;;;;14.72;64.42;101854.03;5208677;28;20030;-80
2022/06/04 06:11:33;;;;;;;8.80;6.03;;;;;;;14.68;64.33;101843.78;5208448;28;20048;-81
2022/06/04 06:14:07;;;;;;;10.40;4.97;;;;;;;14.85;64.46;101853.31;5209257;28;20492;-80
2022/06/04 06:16:43;;;;;;;11.82;5.63;;;;;;;14.79;63.88;101843.09;5208414;28;20061;-80
2022/06/04 06:19:17;;;;;;;10.30;5.63;;;;;;;15.08;63.70;101848.38;5205974;28;20054;-80
2022/06/04 06:21:49;;;;;;;10.80;6.03;;;;;;;14.78;63.97;101847.53;5209685;28;20026;-81
2022/06/04 06:24:21;;;;;;;7.70;5.23;;;;;;;14.70;64.75;101826.91;5209324;28;20107;-81
2022/06/04 06:26:55;;;;;;;10.83;5.93;;;;;;;14.92;64.79;101849.34;5207048;28;20030;-75
2022/06/04 06:29:30;;;;;;;11.80;5.55;;;;;;;15.18;63.92;101854.78;5209386;28;20148;-80
2022/06/04 06:32:02;;;;;;;10.10;5.60;;;;;;;15.03;63.50;101835.47;5195518;28;20027;-80
2022/06/04 06:34:33;;;;;;;10.83;6.10;;;;;;;15.24;63.26;101849.09;5190092;28;20034;-81
2022/06/04 06:37:04;;;;;;;10.67;5.83;;;;;;;15.22;63.68;101871.25;5188873;28;20766;-80
2022/06/04 06:39:36;;;;;;;9.77;5.60;;;;;;;15.17;63.32;101858.34;5199894;28;20083;-81
2022/06/04 06:42:07;;;;;;;8.77;6.37;;;;;;;15.53;63.07;101865.78;5199732;28;20501;-80
2022/06/04 06:44:38;;;;;;;9.57;5.47;;;;;;;15.60;62.69;101864.47;5191091;28;20026;-80
2022/06/04 06:47:11;;;;;;;11.83;6.47;;;;;;;15.65;62.70;101862.38;5208232;28;20041;-80
2022/06/04 06:49:42;;;;;;;10.60;5.17;;;;;;;15.58;63.14;101872.47;5203313;28;20202;-80
2022/06/04 06:52:16;;;;;;;11.97;6.17;;;;;;;15.79;62.70;101874.66;5198211;28;20543;-80
2022/06/04 06:54:47;;;;;;;11.40;5.65;;;;;;;15.77;62.10;101870.41;5208811;28;20038;-80
2022/06/04 06:57:18;;;;;;;10.63;5.53;;;;;;;15.77;62.04;101859.84;5209437;28;20566;-80
2022/06/04 06:59:50;;;;;;;10.53;5.90;;;;;;;15.67;62.24;101863.13;5207301;28;20269;-79
2022/06/04 07:02:21;;;;;;;10.40;5.20;;;;;;;15.85;61.81;101876.88;5207297;28;20038;-81
2022/06/04 07:04:52;;;;;;;8.53;5.93;;;;;;;16.01;61.06;101864.47;5209108;28;20040;-81
2022/06/04 07:07:24;;;;;;;10.13;6.50;;;;;;;15.76;62.47;101858.16;5208789;28;20092;-81
2022/06/04 07:09:55;;;;;;;12.00;6.60;;;;;;;15.90;61.76;101865.19;5206884;28;20069;-80
2022/06/04 07:12:26;;;;;;;8.63;6.40;;;;;;;15.80;61.69;101870.19;5207781;28;20046;-71
2022/06/04 07:14:58;;;;;;;6.00;5.40;;;;;;;15.66;62.10;101869.31;5208131;28;20041;-74
2022/06/04 07:17:30;;;;;;;9.27;6.27;;;;;;;15.82;62.03;101865.66;5209448;28;20026;-74
2022/06/04 07:20:01;;;;;;;9.60;6.37;;;;;;;15.75;62.18;101865.22;5206836;28;20022;-72
2022/06/04 07:22:32;;;;;;;12.53;7.37;;;;;;;15.75;61.88;101874.94;5208298;28;20120;-74
2022/06/04 07:25:04;;;;;;;11.70;7.30;;;;;;;15.76;61.48;101880.13;5208455;28;20088;-77
2022/06/04 07:27:35;;;;;;;12.87;7.30;;;;;;;15.78;62.16;101877.41;5207296;28;20026;-72
2022/06/04 07:30:07;;;;;;;9.97;7.70;;;;;;;15.68;62.37;101883.28;5208507;28;20030;-72
2022/06/04 07:32:40;;;;;;;11.23;6.90;;;;;;;15.38;62.97;101873.75;5208624;28;20018;-72
2022/06/04 07:35:11;;;;;;;14.03;7.67;;;;;;;15.53;63.12;101884.28;5208652;28;20053;-71
2022/06/04 07:37:43;;;;;;;12.57;7.10;;;;;;;15.53;63.07;101879.84;5208398;28;20018;-71
2022/06/04 07:40:15;;;;;;;9.67;6.00;;;;;;;15.78;62.59;101893.25;5202953;28;20601;-71
2022/06/04 07:42:46;;;;;;;9.73;7.03;;;;;;;15.73;62.62;101891.75;5199169;28;20064;-70
2022/06/04 07:45:17;;;;;;;10.20;6.80;;;;;;;15.70;63.14;101889.31;5203433;28;20088;-72
2022/06/04 07:47:49;;;;;;;12.90;7.50;;;;;;;15.76;61.93;101901.25;5197988;28;20072;-74
2022/06/04 07:50:20;;;;;;;11.70;7.23;;;;;;;15.69;62.93;101895.53;5194552;28;20133;-68
2022/06/04 07:52:51;;;;;;;9.23;6.20;;;;;;;15.65;62.66;101886.13;5191537;28;20078;-71
2022/06/04 07:55:23;;;;;;;11.43;6.77;;;;;;;15.77;62.70;101878.34;5207138;28;20030;-73
2022/06/04 07:57:54;;;;;;;12.03;6.97;;;;;;;15.73;62.44;101890.88;5208829;28;20060;-73
2022/06/04 08:00:26;;;;;;;13.73;7.17;;;;;;;15.96;61.71;101888.53;5212006;28;20045;-74
2022/06/04 08:02:57;;;;;;;18.00;6.77;;;;;;;15.92;61.83;101893.16;5211084;28;20037;-74
2022/06/04 08:05:28;;;;;;;10.63;7.00;;;;;;;15.87;62.02;101882.06;5211319;28;20026;-74
2022/06/04 08:08:00;;;;;;;14.17;6.67;;;;;;;16.01;61.52;101893.53;5210608;28;20034;-73
2022/06/04 08:10:31;;;;;;;11.10;7.27;;;;;;;15.81;62.18;101887.75;5211116;28;20112;-74
2022/06/04 08:13:05;;;;;;;11.17;6.53;;;;;;;16.05;62.34;101895.03;5211523;28;20129;-74
2022/06/04 08:15:36;;;;;;;11.23;6.45;;;;;;;16.00;62.17;101886.56;5211481;28;20036;-74
2022/06/04 08:18:10;;;;;;;8.87;6.43;;;;;;;16.03;61.79;101881.06;5212208;28;20022;-73
2022/06/04 08:20:43;;;;;;;9.60;6.53;;;;;;;16.18;61.26;101885.31;5211021;28;20030;-74
2022/06/04 08:23:14;;;;;;;14.47;6.80;;;;;;;16.11;61.93;101888.50;5211835;28;20034;-73
2022/06/04 08:25:50;;;;;;;17.60;8.30;;;;;;;16.06;61.63;101865.88;5210037;28;20030;-73
2022/06/04 08:28:21;;;;;;;12.67;7.67;;;;;;;16.02;62.33;101879.41;5211867;28;20030;-74
2022/06/04 08:31:05;;;;;;;9.83;7.57;;;;;;;16.26;61.24;101873.41;5211315;28;20030;-73
2022/06/04 08:33:36;;;;;;;8.97;7.10;;;;;;;16.17;61.54;101867.78;5211311;28;20512;-74
2022/06/04 08:36:09;;;;;;;10.20;7.17;;;;;;;16.05;61.79;101858.03;5210898;28;20102;-74
2022/06/04 08:38:41;;;;;;;12.17;8.23;;;;;;;16.16;61.33;101865.25;5211201;28;20528;-73
2022/06/04 08:41:53;;;;;;;11.23;7.63;;;;;;;16.24;60.88;101868.22;5210480;28;20112;-74
2022/06/04 08:44:33;;;;;;;15.57;7.27;;;;;;;16.26;61.10;101887.47;5190555;28;20027;-74
2022/06/04 08:47:16;;;;;;;9.73;7.73;;;;;;;16.25;62.11;101895.50;5190362;28;20045;-73
2022/06/04 08:49:52;;;;;;;12.27;7.00;;;;;;;16.31;61.65;101890.66;5204872;28;20030;-73
2022/06/04 08:52:36;;;;;;;9.23;7.20;;;;;;;16.46;61.08;101893.19;5206055;28;20133;-75
2022/06/04 08:58:54;;;;;;;13.00;7.57;;;;;;;16.81;60.67;101895.19;5208026;28;20465;-74
2022/06/04 09:01:35;;;;;;;10.90;7.13;;;;;;;17.05;60.30;101897.03;5210266;28;20187;-75
2022/06/04 09:04:29;;;;;;;13.47;7.23;;;;;;;17.58;59.00;101902.22;5209381;28;20595;-74
2022/06/04 09:07:14;;;;;;;10.70;7.20;;;;;;;17.95;57.77;101896.00;5208663;28;20519;-75
2022/06/04 09:10:06;;;;;;;13.77;7.43;;;;;;;18.28;56.62;101896.25;5209326;28;20045;-74
2022/06/04 09:12:44;;;;;;;10.70;6.63;;;;;;;19.37;55.57;101893.16;5207612;28;20049;-75
2022/06/04 09:15:21;;;;;;;11.63;7.50;;;;;;;20.11;53.49;101889.88;5208373;28;20057;-75
2022/06/04 09:17:54;;;;;;;8.37;6.40;;;;;;;20.79;50.02;101889.34;5207521;28;20040;-72
2022/06/04 09:20:45;;;;;;;9.50;6.40;;;;;;;21.47;48.92;101881.69;5206365;28;20034;-74
2022/06/04 09:23:35;;;;;;;7.13;5.85;;;;;;;22.21;48.01;101883.06;5209451;28;20038;-74
2022/06/04 09:26:15;;;;;;;10.75;6.07;;;;;;;22.44;46.99;101880.91;5210350;28;20030;-74
2022/06/04 09:29:05;;;;;;;9.20;6.20;;;;;;;22.54;47.35;101891.53;5214764;28;20022;-74
2022/06/04 09:32:14;;;;;;;11.52;6.82;;;;;;;22.62;46.35;101898.00;5210791;28;20029;-74
2022/06/04 09:34:49;;;;;;;8.80;6.90;;;;;;;22.11;44.66;101896.44;5209561;28;20026;-75
2022/06/04 09:37:21;;;;;;;9.50;6.43;;;;;;;22.45;45.56;101889.72;5208578;28;20133;-74
2022/06/04 09:40:07;;;;;;;10.98;5.80;;;;;;;23.01;45.54;101891.63;5208672;28;20112;-74
2022/06/04 09:42:38;;;;;;;10.38;6.13;;;;;;;23.29;43.49;101896.94;5209837;28;20116;-75
2022/06/04 09:45:26;;;;;;;10.48;5.88;;;;;;;23.54;43.45;101894.56;5209534;28;20109;-75
2022/06/04 09:47:58;;;;;;;8.57;6.63;;;;;;;23.89;42.69;101898.19;5208082;28;20030;-75
2022/06/04 09:50:37;;;;;;;7.75;5.72;;;;;;;23.99;42.45;101890.06;5209811;28;20026;-75
2022/06/04 09:53:23;;;;;;;12.10;6.95;;;;;;;23.59;43.27;101897.59;5209362;28;20021;-75
2022/06/04 09:56:13;;;;;;;11.57;6.68;;;;;;;23.13;42.59;101898.44;5208851;28;20030;-74
2022/06/04 09:58:47;;;;;;;10.63;6.95;;;;;;;22.91;42.90;101900.56;5212647;28;20022;-75
2022/06/04 10:01:18;;;;;;;10.15;6.18;;;;;;;23.23;44.22;101908.25;5209803;28;20014;-75
2022/06/04 10:04:14;;;;;;;9.90;6.10;;;;;;;23.30;44.14;101899.47;5207944;28;20034;-76
2022/06/04 10:06:46;;;;;;;9.23;7.40;;;;;;;22.81;43.69;101907.78;5208624;28;20034;-76
2022/06/04 10:12:19;;;;;;;9.95;6.50;;;;;;;22.75;44.49;101913.69;5199193;28;20684;-74
2022/06/04 10:15:00;;;;;;;10.07;7.10;;;;;;;23.02;43.89;101906.69;5206783;28;20022;-75
2022/06/04 10:17:37;;;;;;;9.57;7.20;;;;;;;23.00;44.04;101919.34;5206340;28;20679;-75
2022/06/04 10:20:23;;;;;;;10.68;6.85;;;;;;;23.14;44.08;101904.66;5200283;28;20052;-73
2022/06/04 10:22:55;;;;;;;11.00;7.50;;;;;;;22.79;43.59;101910.59;5196979;28;20179;-74
2022/06/04 10:25:37;;;;;;;12.15;7.68;;;;;;;23.12;43.66;101906.63;5196698;28;20014;-74
2022/06/04 10:28:30;;;;;;;15.15;7.05;;;;;;;23.15;43.89;101914.31;5189174;28;20069;-73
2022/06/04 10:31:10;;;;;;;9.10;7.50;;;;;;;22.81;44.04;101910.44;5208399;28;20030;-74
2022/06/04 10:34:01;;;;;;;10.77;7.30;;;;;;;22.88;44.30;101910.69;5208981;28;20431;-73
2022/06/04 10:36:47;;;;;;;9.73;7.07;;;;;;;23.16;43.92;101916.03;5202496;28;20524;-73
2022/06/04 10:39:58;;;;;;;11.95;6.72;;;;;;;23.63;43.08;101908.84;5203563;28;20094;-73
2022/06/04 10:42:53;;;;;;;8.32;6.65;;;;;;;24.01;43.15;101911.31;5207778;28;20058;-73
2022/06/04 10:45:34;;;;;;;7.82;6.95;;;;;;;24.33;42.30;101901.84;5203677;28;20468;-74
2022/06/04 10:48:36;;;;;;;10.73;7.03;;;;;;;24.75;42.05;101918.97;5204506;28;20091;-73
2022/06/04 10:51:36;;;;;;;12.50;9.02;;;;;;;25.60;40.54;101904.81;5207170;28;20034;-74
2022/06/04 10:54:16;;;;;;;12.18;7.80;;;;;;;25.93;38.81;101915.59;5208422;28;20488;-73
2022/06/04 10:57:21;;;;;;;11.32;7.35;;;;;;;26.60;39.76;101915.44;5208414;28;20518;-74
2022/06/04 10:59:59;;;;;;;71.25;11.27;;;;;;;26.60;38.68;101910.06;5197223;28;20026;-73
2022/06/04 11:02:48;;;;;;;13.43;8.27;;;;;;;26.69;38.47;101905.50;5197217;28;20026;-72
2022/06/04 11:05:29;;;;;;;9.30;7.13;;;;;;;26.67;38.04;101908.38;5199106;28;20420;-72
2022/06/04 11:08:16;;;;;;;14.15;8.57;;;;;;;26.91;37.38;101916.50;5196021;28;20732;-72
2022/06/04 11:11:15;;;;;;;9.68;6.95;;;;;;;27.14;37.76;101921.13;5197668;28;20670;-73
2022/06/04 11:13:51;;;;;;;11.55;6.57;;;;;;;26.68;36.89;101917.28;5198854;28;20050;-74
2022/06/04 11:16:31;;;;;;;9.30;6.55;;;;;;;26.53;37.30;101906.44;5196913;28;20014;-74
2022/06/04 11:19:22;;;;;;;11.00;7.50;;;;;;;26.45;38.08;101918.03;5190871;28;20100;-74
2022/06/04 11:22:02;;;;;;;12.80;8.02;;;;;;;25.91;38.66;101916.75;5187260;28;20076;-74
2022/06/04 11:24:57;;;;;;;11.77;6.32;;;;;;;26.53;38.46;101920.69;5185937;28;20612;-74
2022/06/04 11:27:35;;;;;;;35.10;9.43;;;;;;;26.31;37.96;101919.53;5188680;28;20720;-73
2022/06/04 11:30:14;;;;;;;13.25;7.93;;;;;;;25.98;37.86;101923.13;5189852;28;20031;-73
2022/06/04 11:33:07;;;;;;;9.70;6.47;;;;;;;26.29;38.28;101908.97;5207919;28;20540;-72
2022/06/04 11:35:57;;;;;;;12.15;7.80;;;;;;;26.70;37.89;101904.53;5204399;28;20285;-73
2022/06/04 11:39:07;;;;;;;11.27;6.70;;;;;;;26.79;39.10;101902.63;5211107;28;20018;-74
2022/06/04 11:42:02;;;;;;;9.73;6.38;;;;;;;26.96;39.05;101903.38;5187815;28;20046;-74
2022/06/04 11:44:58;;;;;;;43.50;15.30;;;;;;;25.31;48.43;101895.41;5196689;28;20033;-73
2022/06/04 11:47:56;;;;;;;15.00;8.68;;;;;;;25.16;43.25;101897.88;5203007;28;20030;-73
2022/06/04 11:50:59;;;;;;;10.77;8.55;;;;;;;25.11;43.84;101893.00;5208899;28;20093;-73
2022/06/04 11:54:09;;;;;;;17.58;7.88;;;;;;;25.26;44.66;101885.16;5212343;28;20025;-75
2022/06/04 11:57:22;;;;;;;9.43;7.72;;;;;;;25.65;44.12;101889.09;5209573;28;20034;-75
2022/06/04 12:00:20;;;;;;;10.60;8.68;;;;;;;25.86;44.83;101879.69;5211681;28;20029;-75
2022/06/04 12:03:00;;;;;;;9.43;6.90;;;;;;;25.53;42.72;101877.84;5200143;28;20424;-76
2022/06/04 12:06:01;;;;;;;16.25;8.30;;;;;;;25.64;44.18;101870.47;5210711;28;20097;-76
2022/06/04 12:09:16;;;;;;;9.57;6.95;;;;;;;25.67;43.20;101862.09;5205640;28;20034;-76
2022/06/04 12:11:59;;;;;;;10.10;7.18;;;;;;;25.64;43.73;101873.97;5174447;28;20037;-76
2022/06/04 12:14:40;;;;;;;10.68;7.22;;;;;;;25.76;42.37;101862.94;5206480;28;20038;-75
2022/06/04 12:17:20;;;;;;;14.57;7.32;;;;;;;25.74;43.83;101853.19;5204202;28;20564;-76
2022/06/04 12:25:46;;;;;;;9.25;6.18;;;;;;;25.84;43.53;101857.56;5199689;28;20034;-75
2022/06/04 12:28:28;;;;;;;;;;;;;;;26.28;42.49;101852.75;5203972;28;20038;-74
2022/06/04 12:31:00;;;;;;;14.77;7.03;;;;;;;25.91;43.43;101846.97;5210500;28;19917;-75
2022/06/04 12:33:50;;;;;;;11.88;7.43;;;;;;;26.09;40.91;101844.91;5211918;28;20539;-74
2022/06/04 12:36:34;;;;;;;8.98;7.05;;;;;;;26.03;42.07;101850.97;5196791;28;20030;-74